createdAt,value
2023-03-26T00:01:52.843Z,74.04
2023-03-26T00:04:55.818Z,73.80
2023-03-26T00:07:59.097Z,73.57
2023-03-26T00:11:02.966Z,73.96
2023-03-26T00:14:05.959Z,73.59
2023-03-26T00:17:08.774Z,73.76
2023-03-26T00:20:13.043Z,73.57
2023-03-26T00:23:15.979Z,73.65
2023-03-26T00:26:18.963Z,73.26
2023-03-26T00:29:28.072Z,73.49
2023-03-26T00:32:31.544Z,73.55
2023-03-26T00:35:38.807Z,73.22
2023-03-26T00:38:43.036Z,73.74
2023-03-26T00:41:45.971Z,73.38
2023-03-26T00:44:51.293Z,73.38
2023-03-26T00:47:54.177Z,74.23
2023-03-26T00:50:57.917Z,73.35
2023-03-26T00:54:00.918Z,73.80
2023-03-26T00:57:06.966Z,73.98
2023-03-26T01:00:15.339Z,74.08
2023-03-26T01:03:27.547Z,74.46
2023-03-26T01:06:36.199Z,73.68
2023-03-26T01:09:50.467Z,74.72
2023-03-26T01:12:53.720Z,74.46
2023-03-26T01:15:57.948Z,74.74
2023-03-26T01:19:01.013Z,74.60
2023-03-26T01:22:05.791Z,74.73
2023-03-26T01:25:09.687Z,74.19
2023-03-26T01:28:13.710Z,73.83
2023-03-26T01:31:21.900Z,74.37
2023-03-26T01:34:52.425Z,74.15
2023-03-26T01:38:13.551Z,74.78
2023-03-26T01:41:50.933Z,74.83
2023-03-26T01:45:08.247Z,75.00
2023-03-26T01:48:12.348Z,74.10
2023-03-26T01:51:27.285Z,73.84
2023-03-26T01:54:31.903Z,74.08
2023-03-26T01:57:38.112Z,74.28
2023-03-26T02:01:06.022Z,75.10
2023-03-26T02:04:27.076Z,74.90
2023-03-26T02:07:53.142Z,75.69
2023-03-26T02:10:58.760Z,75.29
2023-03-26T02:14:01.842Z,74.90
2023-03-26T02:17:05.120Z,75.64
2023-03-26T02:20:10.563Z,75.02
2023-03-26T02:23:13.351Z,75.53
2023-03-26T02:26:19.478Z,74.98
2023-03-26T02:29:22.391Z,74.92
2023-03-26T02:32:26.731Z,74.43
2023-03-26T02:35:30.970Z,74.64
2023-03-26T02:38:35.319Z,74.49
2023-03-26T02:41:38.802Z,75.32
2023-03-26T02:44:41.973Z,74.82
2023-03-26T02:47:46.273Z,74.83
2023-03-26T02:50:50.389Z,74.54
2023-03-26T02:53:53.866Z,74.06
2023-03-26T02:56:56.890Z,73.71
2023-03-26T02:59:59.733Z,73.76
2023-03-26T03:03:04.594Z,73.92
2023-03-26T03:06:09.165Z,73.56
2023-03-26T03:09:13.126Z,73.68
2023-03-26T03:12:15.927Z,73.58
2023-03-26T03:15:18.908Z,73.35
2023-03-26T03:18:22.228Z,73.32
2023-03-26T03:21:27.679Z,73.49
2023-03-26T03:24:33.955Z,73.29
2023-03-26T03:27:39.377Z,73.20
2023-03-26T03:30:42.245Z,73.33
2023-03-26T03:33:46.602Z,73.09
2023-03-26T03:36:50.198Z,73.25
2023-03-26T03:39:53.088Z,73.16
2023-03-26T03:42:56.028Z,73.03
2023-03-26T03:46:00.049Z,72.91
2023-03-26T03:49:03.684Z,72.95
2023-03-26T03:52:07.116Z,72.78
2023-03-26T03:55:10.724Z,72.69
2023-03-26T03:58:14.815Z,72.79
2023-03-26T04:01:18.830Z,72.54
2023-03-26T04:04:22.240Z,72.43
2023-03-26T04:07:25.964Z,72.42
2023-03-26T04:10:28.778Z,72.08
2023-03-26T04:13:31.588Z,72.10
2023-03-26T04:16:34.587Z,71.92
2023-03-26T04:19:37.660Z,71.82
2023-03-26T04:22:41.203Z,72.04
2023-03-26T04:25:54.186Z,72.05
2023-03-26T04:29:02.781Z,72.03
2023-03-26T04:32:08.349Z,72.08
2023-03-26T04:35:16.777Z,72.00
2023-03-26T04:38:19.727Z,72.07
2023-03-26T04:41:22.658Z,72.20
2023-03-26T04:44:25.522Z,71.81
2023-03-26T04:47:29.173Z,71.96
2023-03-26T04:50:32.017Z,71.91
2023-03-26T04:53:35.963Z,71.98
2023-03-26T04:56:46.754Z,71.93
2023-03-26T04:59:50.280Z,71.83
2023-03-26T05:02:56.264Z,72.18
2023-03-26T05:06:00.216Z,72.15
2023-03-26T05:09:03.360Z,72.43
2023-03-26T05:12:06.343Z,71.77
2023-03-26T05:15:11.607Z,71.80
2023-03-26T05:18:14.519Z,71.61
2023-03-26T05:21:17.467Z,71.49
2023-03-26T05:24:20.898Z,71.33
2023-03-26T05:27:23.745Z,71.26
2023-03-26T05:30:26.667Z,71.20
2023-03-26T05:33:30.166Z,71.08
2023-03-26T05:36:33.508Z,70.84
2023-03-26T05:39:36.540Z,70.79
2023-03-26T05:42:39.997Z,70.27
2023-03-26T05:45:42.883Z,70.31
2023-03-26T05:48:45.890Z,70.21
2023-03-26T05:51:48.716Z,69.76
2023-03-26T05:54:51.565Z,69.93
2023-03-26T05:57:54.407Z,70.09
2023-03-26T06:01:09.414Z,70.05
2023-03-26T06:04:13.774Z,69.63
2023-03-26T06:07:18.178Z,69.18
2023-03-26T06:10:21.025Z,68.98
2023-03-26T06:13:23.791Z,68.73
2023-03-26T06:16:27.516Z,68.22
2023-03-26T06:19:30.852Z,68.25
2023-03-26T06:22:33.689Z,68.44
2023-03-26T06:25:37.322Z,68.58
2023-03-26T06:28:40.555Z,67.94
2023-03-26T06:31:43.504Z,67.42
2023-03-26T06:34:46.408Z,67.74
2023-03-26T06:37:49.283Z,67.30
2023-03-26T06:40:52.340Z,67.06
2023-03-26T06:43:55.853Z,67.32
2023-03-26T06:46:58.787Z,66.78
2023-03-26T06:50:01.801Z,66.58
2023-03-26T06:53:04.710Z,66.20
2023-03-26T06:56:09.221Z,65.77
2023-03-26T06:59:12.141Z,65.18
2023-03-26T07:02:15.017Z,64.86
2023-03-26T07:05:18.206Z,64.08
2023-03-26T07:08:21.365Z,62.64
2023-03-26T07:11:25.673Z,63.01
2023-03-26T07:14:30.678Z,61.73
2023-03-26T07:17:33.551Z,61.67
2023-03-26T07:20:36.928Z,62.18
2023-03-26T07:23:40.132Z,63.12
2023-03-26T07:26:55.010Z,61.38
2023-03-26T07:30:22.616Z,61.90
2023-03-26T07:33:30.665Z,61.97
2023-03-26T07:36:49.113Z,61.83
2023-03-26T07:40:20.363Z,62.43
2023-03-26T07:43:55.474Z,61.20
2023-03-26T07:47:02.474Z,62.01
2023-03-26T07:50:06.365Z,61.14
2023-03-26T07:53:10.001Z,61.06
2023-03-26T07:56:27.177Z,59.72
2023-03-26T07:59:49.945Z,59.92
2023-03-26T08:03:38.331Z,58.85
2023-03-26T08:06:49.371Z,58.89
2023-03-26T08:10:20.175Z,59.04
2023-03-26T08:13:31.700Z,58.24
2023-03-26T08:16:48.863Z,56.12
2023-03-26T08:19:51.714Z,54.95
2023-03-26T08:23:07.295Z,54.42
2023-03-26T08:26:13.812Z,54.57
2023-03-26T08:29:54.893Z,54.48
2023-03-26T08:33:13.213Z,55.44
2023-03-26T08:36:16.591Z,54.78
2023-03-26T08:39:22.339Z,55.28
2023-03-26T08:43:01.081Z,53.53
2023-03-26T08:46:51.717Z,53.87
2023-03-26T08:50:19.005Z,52.84
2023-03-26T08:54:04.056Z,52.68
2023-03-26T08:57:15.836Z,53.67
2023-03-26T09:00:56.768Z,54.40
2023-03-26T09:04:18.868Z,55.33
2023-03-26T09:08:06.175Z,56.07
2023-03-26T09:11:18.773Z,56.44
2023-03-26T09:14:39.981Z,55.92
2023-03-26T09:18:08.066Z,55.80
2023-03-26T09:21:39.066Z,56.03
2023-03-26T09:25:15.578Z,53.95
2023-03-26T09:28:43.816Z,54.27
2023-03-26T09:32:27.981Z,55.01
2023-03-26T09:35:59.141Z,55.13
2023-03-26T09:39:40.700Z,54.62
2023-03-26T09:42:46.253Z,52.78
2023-03-26T09:45:54.980Z,51.35
2023-03-26T09:49:25.787Z,52.17
2023-03-26T09:53:08.708Z,52.19
2023-03-26T09:56:33.818Z,51.16
2023-03-26T10:00:21.046Z,50.68
2023-03-26T10:03:38.562Z,51.03
2023-03-26T10:06:58.182Z,50.34
2023-03-26T10:10:31.881Z,49.73
2023-03-26T10:14:00.438Z,48.39
2023-03-26T10:17:35.891Z,48.90
2023-03-26T10:21:01.827Z,50.03
2023-03-26T10:24:22.911Z,50.68
2023-03-26T10:27:52.622Z,49.57
2023-03-26T10:31:09.252Z,48.19
2023-03-26T10:34:31.641Z,48.40
2023-03-26T10:38:02.840Z,47.67
2023-03-26T10:42:07.061Z,48.44
2023-03-26T10:45:30.908Z,47.83
2023-03-26T10:48:48.926Z,46.53
2023-03-26T10:52:09.436Z,46.34
2023-03-26T10:55:31.547Z,46.92
2023-03-26T10:58:48.338Z,46.60
2023-03-26T11:02:29.236Z,46.06
2023-03-26T11:05:55.980Z,46.55
2023-03-26T11:09:27.302Z,46.20
2023-03-26T11:12:46.172Z,47.27
2023-03-26T11:16:20.429Z,47.96
2023-03-26T11:19:36.957Z,49.13
2023-03-26T11:22:52.014Z,49.77
2023-03-26T11:26:14.783Z,50.20
2023-03-26T11:29:31.367Z,49.68
2023-03-26T11:32:53.780Z,48.03
2023-03-26T11:36:02.023Z,49.12
2023-03-26T11:39:13.751Z,49.06
2023-03-26T11:42:21.486Z,49.33
2023-03-26T11:45:27.889Z,48.23
2023-03-26T11:48:41.048Z,47.28
2023-03-26T11:51:47.972Z,47.00
2023-03-26T11:54:50.934Z,46.66
2023-03-26T11:57:57.243Z,47.68
2023-03-26T12:01:04.992Z,46.90
2023-03-26T12:04:13.826Z,44.53
2023-03-26T12:07:22.471Z,43.41
2023-03-26T12:10:38.430Z,43.46
2023-03-26T12:13:46.038Z,42.56
2023-03-26T12:17:11.828Z,43.84
2023-03-26T12:20:32.419Z,43.41
2023-03-26T12:23:54.090Z,43.21
2023-03-26T12:27:02.212Z,43.04
2023-03-26T12:30:21.311Z,42.92
2023-03-26T12:33:35.339Z,42.77
2023-03-26T12:36:39.312Z,43.99
2023-03-26T12:40:07.208Z,44.56
2023-03-26T12:44:49.556Z,44.88
2023-03-26T12:47:59.262Z,44.51
2023-03-26T12:51:03.043Z,44.82
2023-03-26T12:54:37.179Z,45.24
2023-03-26T12:58:28.576Z,45.55
2023-03-26T13:01:37.748Z,44.60
2023-03-26T13:05:02.333Z,43.61
2023-03-26T13:08:46.706Z,43.83
2023-03-26T13:12:20.579Z,43.11
2023-03-26T13:15:34.797Z,43.40
2023-03-26T13:18:55.974Z,43.39
2023-03-26T13:22:01.851Z,42.67
2023-03-26T13:25:23.068Z,41.91
2023-03-26T13:28:54.020Z,41.31
2023-03-26T13:32:25.254Z,42.20
2023-03-26T13:35:37.216Z,41.69
2023-03-26T13:38:58.900Z,42.14
2023-03-26T13:42:38.244Z,41.88
2023-03-26T13:45:56.214Z,42.44
2023-03-26T13:49:12.018Z,42.80
2023-03-26T13:52:22.792Z,42.40
2023-03-26T13:55:40.207Z,42.85
2023-03-26T13:59:08.401Z,42.82
2023-03-26T14:02:20.496Z,42.36
2023-03-26T14:05:36.217Z,42.40
2023-03-26T14:08:45.005Z,41.97
2023-03-26T14:11:58.333Z,43.15
2023-03-26T14:15:04.399Z,43.45
2023-03-26T14:18:35.939Z,43.69
2023-03-26T14:21:38.812Z,43.42
2023-03-26T14:25:10.854Z,43.85
2023-03-26T14:28:51.818Z,43.61
2023-03-26T14:32:00.722Z,44.23
2023-03-26T14:35:28.904Z,44.09
2023-03-26T14:38:56.813Z,43.99
2023-03-26T14:42:07.755Z,44.09
2023-03-26T14:45:35.587Z,43.63
2023-03-26T14:49:01.388Z,43.76
2023-03-26T14:52:14.079Z,43.05
2023-03-26T14:55:29.465Z,43.82
2023-03-26T14:59:03.081Z,43.51
2023-03-26T15:03:03.211Z,43.88
2023-03-26T15:06:26.597Z,44.28
2023-03-26T15:09:29.302Z,44.05
2023-03-26T15:12:54.766Z,44.78
2023-03-26T15:16:35.188Z,45.18
2023-03-26T15:19:56.934Z,45.46
2023-03-26T15:23:18.360Z,45.79
2023-03-26T15:26:53.025Z,45.96
2023-03-26T15:30:33.680Z,45.84
2023-03-26T15:33:55.080Z,46.26
2023-03-26T15:37:48.325Z,46.37
2023-03-26T15:41:05.646Z,45.75
2023-03-26T15:44:43.761Z,45.31
2023-03-26T15:47:57.475Z,45.60
2023-03-26T15:51:28.665Z,45.83
2023-03-26T15:54:52.130Z,46.25
2023-03-26T15:58:04.046Z,46.49
2023-03-26T16:01:34.779Z,46.64
2023-03-26T16:04:50.370Z,47.51
2023-03-26T16:08:04.507Z,47.79
2023-03-26T16:11:12.791Z,47.84
2023-03-26T16:14:23.917Z,48.36
2023-03-26T16:17:27.115Z,48.23
2023-03-26T16:20:34.687Z,48.52
2023-03-26T16:23:47.763Z,49.38
2023-03-26T16:27:01.393Z,49.51
2023-03-26T16:30:09.711Z,50.51
2023-03-26T16:33:16.055Z,50.79
2023-03-26T16:36:26.177Z,50.64
2023-03-26T16:39:42.384Z,51.27
2023-03-26T16:43:10.439Z,52.09
2023-03-26T16:46:52.929Z,52.17
2023-03-26T16:50:14.268Z,52.18
2023-03-26T16:53:29.980Z,52.31
2023-03-26T16:56:54.973Z,52.57
2023-03-26T17:00:24.710Z,52.57
2023-03-26T17:03:45.215Z,52.56
2023-03-26T17:07:18.422Z,53.04
2023-03-26T17:10:46.792Z,53.80
2023-03-26T17:14:04.865Z,53.50
2023-03-26T17:17:43.268Z,54.27
2023-03-26T17:21:24.195Z,53.73
2023-03-26T17:24:30.662Z,53.99
2023-03-26T17:27:50.166Z,54.02
2023-03-26T17:30:53.844Z,54.70
2023-03-26T17:34:55.602Z,54.71
2023-03-26T17:37:58.637Z,56.64
2023-03-26T17:41:01.606Z,56.75
2023-03-26T17:44:38.142Z,57.66
2023-03-26T17:47:43.800Z,57.70
2023-03-26T17:50:59.211Z,57.81
2023-03-26T17:54:03.036Z,57.62
2023-03-26T17:57:40.309Z,57.92
2023-03-26T18:00:48.133Z,57.82
2023-03-26T18:03:54.862Z,58.13
2023-03-26T18:07:14.360Z,58.28
2023-03-26T18:10:36.437Z,58.50
2023-03-26T18:14:04.242Z,59.11
2023-03-26T18:17:07.445Z,59.18
2023-03-26T18:20:20.851Z,59.36
2023-03-26T18:23:30.241Z,59.43
2023-03-26T18:26:37.703Z,59.68
2023-03-26T18:29:47.066Z,60.53
2023-03-26T18:33:00.783Z,60.59
2023-03-26T18:36:04.338Z,61.49
2023-03-26T18:39:13.451Z,62.38
2023-03-26T18:42:24.646Z,62.21
2023-03-26T18:45:36.322Z,62.51
2023-03-26T18:48:39.640Z,63.61
2023-03-26T18:51:56.245Z,64.11
2023-03-26T18:55:02.710Z,64.28
2023-03-26T18:58:27.829Z,64.51
2023-03-26T19:01:33.390Z,66.43
2023-03-26T19:04:37.421Z,67.45
2023-03-26T19:07:40.993Z,66.98
2023-03-26T19:10:47.701Z,67.69
2023-03-26T19:13:59.848Z,68.71
2023-03-26T19:17:07.144Z,68.53
2023-03-26T19:20:22.623Z,69.42
2023-03-26T19:23:33.090Z,67.92
2023-03-26T19:26:36.830Z,70.90
2023-03-26T19:29:41.863Z,68.57
2023-03-26T19:32:53.828Z,69.79
2023-03-26T19:36:05.387Z,70.52
2023-03-26T19:39:14.025Z,70.26
2023-03-26T19:42:43.031Z,70.41
2023-03-26T19:46:00.294Z,71.01
2023-03-26T19:49:04.540Z,70.38
2023-03-26T19:52:16.149Z,72.51
2023-03-26T19:55:24.180Z,70.96
2023-03-26T19:58:27.500Z,70.87
2023-03-26T20:04:34.747Z,71.98
2023-03-26T20:07:39.418Z,72.22
2023-03-26T20:10:50.012Z,72.18
2023-03-26T20:13:54.514Z,72.33
2023-03-26T20:16:57.566Z,72.24
2023-03-26T20:20:00.386Z,72.50
2023-03-26T20:23:03.933Z,72.41
2023-03-26T20:26:12.138Z,72.60
2023-03-26T20:29:15.918Z,72.84
2023-03-26T20:32:24.237Z,73.06
2023-03-26T20:35:37.713Z,73.57
2023-03-26T20:38:41.649Z,73.77
2023-03-26T20:41:47.265Z,75.63
2023-03-26T20:44:50.170Z,74.34
2023-03-26T20:47:54.275Z,75.36
2023-03-26T20:50:57.183Z,76.78
2023-03-26T20:54:00.722Z,74.31
2023-03-26T20:57:03.907Z,73.69
2023-03-26T21:00:23.542Z,74.93
2023-03-26T21:03:26.427Z,74.53
2023-03-26T21:06:29.334Z,79.42
2023-03-26T21:09:34.256Z,77.98
2023-03-26T21:12:47.350Z,80.42
2023-03-26T21:15:50.539Z,80.91
2023-03-26T21:18:53.820Z,79.57
2023-03-26T21:22:15.455Z,80.99
2023-03-26T21:25:21.021Z,79.68
2023-03-26T21:28:39.793Z,77.63
2023-03-26T21:31:46.822Z,78.10
2023-03-26T21:34:58.787Z,78.15
2023-03-26T21:38:05.265Z,76.65
2023-03-26T21:41:25.896Z,79.11
2023-03-26T21:44:28.980Z,79.83
2023-03-26T21:47:32.287Z,78.35
2023-03-26T21:50:35.803Z,77.79
2023-03-26T21:53:39.054Z,77.96
2023-03-26T21:56:50.619Z,77.87
2023-03-26T22:00:15.388Z,77.88
2023-03-26T22:03:28.718Z,78.20
2023-03-26T22:06:43.065Z,79.37
2023-03-26T22:09:46.675Z,80.48
2023-03-26T22:12:50.426Z,78.72
2023-03-26T22:15:53.785Z,78.70
2023-03-26T22:18:56.882Z,78.87
2023-03-26T22:22:00.279Z,78.43
2023-03-26T22:25:03.334Z,78.02
2023-03-26T22:28:06.156Z,78.63
2023-03-26T22:31:09.447Z,78.53
2023-03-26T22:34:12.464Z,78.40
2023-03-26T22:37:16.300Z,78.70
2023-03-26T22:40:19.337Z,78.36
2023-03-26T22:43:28.017Z,78.71
2023-03-26T22:46:35.905Z,78.53
2023-03-26T22:49:40.093Z,78.09
2023-03-26T22:52:42.943Z,78.13
2023-03-26T22:55:45.789Z,78.22
2023-03-26T22:58:48.929Z,78.67
2023-03-26T23:01:52.708Z,79.24
2023-03-26T23:04:55.796Z,79.18
2023-03-26T23:07:58.667Z,79.23
2023-03-26T23:11:02.322Z,79.06
2023-03-26T23:14:05.236Z,79.18
2023-03-26T23:17:14.604Z,78.83
2023-03-26T23:20:18.112Z,78.63
2023-03-26T23:23:24.170Z,79.06
2023-03-26T23:26:35.008Z,78.72
2023-03-26T23:29:40.708Z,78.65
2023-03-26T23:32:44.103Z,78.68
2023-03-26T23:35:49.383Z,79.04
2023-03-26T23:38:53.704Z,78.97
2023-03-26T23:41:56.507Z,79.08
2023-03-26T23:44:59.350Z,79.18
2023-03-26T23:48:02.634Z,79.13
2023-03-26T23:51:06.933Z,79.39
2023-03-26T23:54:11.732Z,79.41
2023-03-26T23:57:14.557Z,80.26
